createdAt,value
2023-03-26T00:00:54.139Z,10.30
2023-03-26T00:03:22.431Z,10.40
2023-03-26T00:05:49.781Z,10.30
2023-03-26T00:08:16.967Z,10.30
2023-03-26T00:10:44.204Z,10.30
2023-03-26T00:13:11.251Z,10.30
2023-03-26T00:15:38.186Z,10.30
2023-03-26T00:18:05.806Z,10.30
2023-03-26T00:20:35.526Z,10.20
2023-03-26T00:23:02.321Z,10.20
2023-03-26T00:25:29.199Z,10.20
2023-03-26T00:27:55.973Z,10.20
2023-03-26T00:30:23.225Z,10.20
2023-03-26T00:32:53.363Z,10.10
2023-03-26T00:35:20.925Z,10.10
2023-03-26T00:37:47.935Z,10.10
2023-03-26T00:40:14.720Z,10.10
2023-03-26T00:42:42.532Z,10.10
2023-03-26T00:45:09.812Z,10.10
2023-03-26T00:47:37.171Z,10.10
2023-03-26T00:50:04.358Z,10.00
2023-03-26T00:52:31.774Z,10.00
2023-03-26T00:54:58.764Z,10.00
2023-03-26T00:57:35.562Z,10.00
2023-03-26T01:00:10.134Z,10.00
2023-03-26T01:02:37.111Z,10.00
2023-03-26T01:05:36.069Z,10.00
2023-03-26T01:08:23.229Z,10.00
2023-03-26T01:10:51.575Z,10.00
2023-03-26T01:13:23.035Z,10.00
2023-03-26T01:15:51.123Z,10.00
2023-03-26T01:18:19.941Z,10.00
2023-03-26T01:20:49.732Z,10.00
2023-03-26T01:23:23.837Z,10.00
2023-03-26T01:26:12.272Z,10.00
2023-03-26T01:28:41.433Z,10.00
2023-03-26T01:31:30.464Z,9.90
2023-03-26T01:34:37.460Z,10.00
2023-03-26T01:37:17.671Z,10.00
2023-03-26T01:39:57.065Z,10.00
2023-03-26T01:42:47.223Z,10.00
2023-03-26T01:45:16.769Z,10.00
2023-03-26T01:47:43.624Z,10.00
2023-03-26T01:50:10.581Z,10.00
2023-03-26T01:52:38.036Z,10.00
2023-03-26T01:55:05.432Z,10.00
2023-03-26T01:57:38.449Z,10.00
2023-03-26T02:00:44.463Z,10.00
2023-03-26T02:03:18.126Z,10.00
2023-03-26T02:05:50.656Z,10.00
2023-03-26T02:08:38.377Z,10.00
2023-03-26T02:11:11.888Z,10.10
2023-03-26T02:13:39.282Z,10.20
2023-03-26T02:16:08.020Z,10.20
2023-03-26T02:18:39.115Z,10.20
2023-03-26T02:21:10.064Z,10.30
2023-03-26T02:23:46.978Z,10.30
2023-03-26T02:26:16.248Z,10.30
2023-03-26T02:28:57.814Z,10.20
2023-03-26T02:31:30.254Z,10.10
2023-03-26T02:33:57.312Z,10.00
2023-03-26T02:36:27.638Z,10.00
2023-03-26T02:38:58.163Z,10.00
2023-03-26T02:41:25.457Z,10.00
2023-03-26T02:43:58.178Z,10.00
2023-03-26T02:46:41.970Z,10.00
2023-03-26T02:49:37.464Z,10.00
2023-03-26T02:52:06.674Z,10.00
2023-03-26T02:54:35.146Z,10.00
2023-03-26T02:57:16.284Z,10.00
2023-03-26T02:59:43.263Z,10.00
2023-03-26T03:02:30.095Z,10.10
2023-03-26T03:05:08.423Z,10.10
2023-03-26T03:07:38.664Z,10.10
2023-03-26T03:10:08.660Z,10.10
2023-03-26T03:12:55.642Z,10.10
2023-03-26T03:15:22.447Z,10.10
2023-03-26T03:17:49.360Z,10.10
2023-03-26T03:20:16.843Z,10.10
2023-03-26T03:22:43.809Z,10.10
2023-03-26T03:25:14.322Z,10.20
2023-03-26T03:27:42.844Z,10.10
2023-03-26T03:30:13.169Z,10.20
2023-03-26T03:32:45.683Z,10.20
2023-03-26T03:35:14.720Z,10.20
2023-03-26T03:37:44.692Z,10.20
2023-03-26T03:40:11.947Z,10.20
2023-03-26T03:42:39.584Z,10.20
2023-03-26T03:45:08.417Z,10.20
2023-03-26T03:48:01.369Z,10.10
2023-03-26T03:50:37.166Z,10.10
2023-03-26T03:53:26.459Z,10.10
2023-03-26T03:55:56.071Z,10.20
2023-03-26T03:58:28.404Z,10.10
2023-03-26T04:01:04.274Z,10.10
2023-03-26T04:03:50.384Z,10.10
2023-03-26T04:06:20.395Z,10.00
2023-03-26T04:08:52.306Z,10.10
2023-03-26T04:11:19.461Z,10.00
2023-03-26T04:14:10.212Z,9.90
2023-03-26T04:16:55.002Z,9.80
2023-03-26T04:19:22.954Z,9.80
2023-03-26T04:21:49.828Z,9.70
2023-03-26T04:24:20.493Z,9.60
2023-03-26T04:27:16.204Z,9.60
2023-03-26T04:29:45.877Z,9.60
2023-03-26T04:32:29.831Z,9.50
2023-03-26T04:35:00.283Z,9.40
2023-03-26T04:37:34.509Z,9.40
2023-03-26T04:40:20.255Z,9.40
2023-03-26T04:43:06.411Z,9.40
2023-03-26T04:46:07.521Z,9.40
2023-03-26T04:48:40.540Z,9.40
2023-03-26T04:51:18.285Z,9.40
2023-03-26T04:53:54.092Z,9.40
2023-03-26T04:56:51.335Z,9.40
2023-03-26T04:59:53.704Z,9.40
2023-03-26T05:02:21.264Z,9.40
2023-03-26T05:04:51.907Z,9.40
2023-03-26T05:07:20.956Z,9.50
2023-03-26T05:09:51.308Z,9.40
2023-03-26T05:12:34.657Z,9.40
2023-03-26T05:15:11.487Z,9.30
2023-03-26T05:17:58.620Z,9.30
2023-03-26T05:20:33.581Z,9.30
2023-03-26T05:23:01.352Z,9.30
2023-03-26T05:25:31.021Z,9.30
2023-03-26T05:27:59.551Z,9.30
2023-03-26T05:30:33.455Z,9.30
2023-03-26T05:33:02.778Z,9.30
2023-03-26T05:35:36.689Z,9.30
2023-03-26T05:38:04.537Z,9.30
2023-03-26T05:40:31.333Z,9.30
2023-03-26T05:43:00.715Z,9.30
2023-03-26T05:45:49.847Z,9.40
2023-03-26T05:48:25.452Z,9.40
2023-03-26T05:50:54.839Z,9.40
2023-03-26T05:53:22.418Z,9.40
2023-03-26T05:56:07.555Z,9.40
2023-03-26T05:58:34.795Z,9.40
2023-03-26T06:01:20.788Z,9.40
2023-03-26T06:04:12.571Z,9.40
2023-03-26T06:06:46.316Z,9.40
2023-03-26T06:09:13.695Z,9.40
2023-03-26T06:11:41.932Z,9.40
2023-03-26T06:14:09.081Z,9.30
2023-03-26T06:16:38.869Z,9.30
2023-03-26T06:19:13.641Z,9.30
2023-03-26T06:21:54.576Z,9.30
2023-03-26T06:24:30.089Z,9.30
2023-03-26T06:27:15.759Z,9.30
2023-03-26T06:29:52.986Z,9.30
2023-03-26T06:32:32.505Z,9.20
2023-03-26T06:35:09.950Z,9.20
2023-03-26T06:37:37.053Z,9.20
2023-03-26T06:40:04.654Z,9.10
2023-03-26T06:43:09.586Z,9.10
2023-03-26T06:45:57.086Z,9.10
2023-03-26T06:48:47.003Z,9.10
2023-03-26T06:51:32.344Z,9.10
2023-03-26T06:54:08.364Z,9.10
2023-03-26T06:56:49.946Z,9.20
2023-03-26T06:59:42.980Z,9.20
2023-03-26T07:02:28.391Z,9.20
2023-03-26T07:05:15.737Z,9.20
2023-03-26T07:08:00.980Z,9.10
2023-03-26T07:10:46.784Z,9.10
2023-03-26T07:13:24.540Z,9.00
2023-03-26T07:15:57.128Z,9.00
2023-03-26T07:18:50.972Z,9.00
2023-03-26T07:21:22.674Z,9.00
2023-03-26T07:23:50.121Z,9.00
2023-03-26T07:26:34.750Z,9.00
2023-03-26T07:29:25.575Z,9.00
2023-03-26T07:32:16.155Z,9.00
2023-03-26T07:35:17.157Z,9.00
2023-03-26T07:38:23.203Z,9.00
2023-03-26T07:41:23.885Z,9.00
2023-03-26T07:44:15.472Z,9.00
2023-03-26T07:47:29.161Z,9.00
2023-03-26T07:50:19.123Z,9.10
2023-03-26T07:53:09.859Z,9.20
2023-03-26T07:56:01.627Z,9.20
2023-03-26T07:59:07.121Z,9.30
2023-03-26T08:01:52.085Z,9.40
2023-03-26T08:04:39.311Z,9.40
2023-03-26T08:07:25.061Z,9.30
2023-03-26T08:10:37.200Z,9.30
2023-03-26T08:13:35.043Z,9.30
2023-03-26T08:16:08.204Z,9.30
2023-03-26T08:19:29.923Z,9.40
2023-03-26T08:22:16.935Z,9.50
2023-03-26T08:25:03.319Z,9.70
2023-03-26T08:27:34.498Z,9.80
2023-03-26T08:30:11.938Z,10.00
2023-03-26T08:32:39.082Z,10.10
2023-03-26T08:35:06.633Z,10.10
2023-03-26T08:37:33.546Z,10.10
2023-03-26T08:40:00.733Z,10.00
2023-03-26T08:42:52.195Z,10.00
2023-03-26T08:45:28.099Z,10.00
2023-03-26T08:48:03.937Z,10.00
2023-03-26T08:50:36.650Z,10.00
2023-03-26T08:53:22.010Z,10.00
2023-03-26T08:56:01.700Z,10.00
2023-03-26T08:59:01.893Z,10.00
2023-03-26T09:01:32.012Z,10.00
2023-03-26T09:04:30.874Z,10.00
2023-03-26T09:07:10.037Z,10.00
2023-03-26T09:10:02.953Z,10.00
2023-03-26T09:12:47.725Z,10.00
2023-03-26T09:15:28.034Z,10.00
2023-03-26T09:18:09.890Z,10.10
2023-03-26T09:21:21.523Z,10.10
2023-03-26T09:24:00.403Z,10.10
2023-03-26T09:26:34.455Z,10.10
2023-03-26T09:29:07.298Z,10.20
2023-03-26T09:31:59.433Z,10.40
2023-03-26T09:34:38.707Z,10.60
2023-03-26T09:37:18.862Z,10.90
2023-03-26T09:39:57.812Z,11.20
2023-03-26T09:42:44.734Z,11.40
2023-03-26T09:45:53.187Z,11.50
2023-03-26T09:48:19.994Z,11.60
2023-03-26T09:50:56.196Z,11.60
2023-03-26T09:53:54.446Z,11.60
2023-03-26T09:56:47.040Z,11.60
2023-03-26T09:59:25.674Z,11.50
2023-03-26T10:02:45.797Z,11.30
2023-03-26T10:05:27.139Z,11.30
2023-03-26T10:08:01.610Z,11.10
2023-03-26T10:10:57.587Z,11.10
2023-03-26T10:13:29.965Z,11.10
2023-03-26T10:16:14.786Z,11.20
2023-03-26T10:18:42.266Z,11.30
2023-03-26T10:21:34.571Z,11.40
2023-03-26T10:24:16.680Z,11.60
2023-03-26T10:27:08.957Z,11.90
2023-03-26T10:30:04.259Z,12.00
2023-03-26T10:32:44.355Z,12.20
2023-03-26T10:35:43.075Z,12.30
2023-03-26T10:38:20.798Z,12.40
2023-03-26T10:41:17.156Z,12.50
2023-03-26T10:44:05.208Z,12.60
2023-03-26T10:47:02.773Z,12.70
2023-03-26T10:49:39.774Z,12.80
2023-03-26T10:52:16.029Z,12.80
2023-03-26T10:54:49.005Z,12.80
2023-03-26T10:57:37.348Z,12.80
2023-03-26T11:00:33.530Z,12.80
2023-03-26T11:03:21.003Z,12.70
2023-03-26T11:05:49.816Z,12.70
2023-03-26T11:08:32.617Z,12.80
2023-03-26T11:11:36.352Z,12.90
2023-03-26T11:14:33.822Z,13.00
2023-03-26T11:17:40.677Z,13.10
2023-03-26T11:20:11.218Z,13.40
2023-03-26T11:22:50.407Z,13.60
2023-03-26T11:25:41.907Z,13.70
2023-03-26T11:29:03.592Z,13.70
2023-03-26T11:32:11.786Z,13.70
2023-03-26T11:34:58.405Z,13.70
2023-03-26T11:37:42.108Z,13.70
2023-03-26T11:40:21.303Z,13.70
2023-03-26T11:42:48.868Z,13.70
2023-03-26T11:45:24.317Z,13.70
2023-03-26T11:48:08.138Z,13.70
2023-03-26T11:50:35.937Z,13.80
2023-03-26T11:53:13.537Z,13.90
2023-03-26T11:56:06.310Z,14.00
2023-03-26T11:58:40.443Z,14.30
2023-03-26T12:01:18.850Z,14.60
2023-03-26T12:04:03.508Z,15.00
2023-03-26T12:06:30.543Z,15.40
2023-03-26T12:08:57.581Z,15.60
2023-03-26T12:11:32.603Z,15.70
2023-03-26T12:14:01.926Z,15.60
2023-03-26T12:16:28.933Z,15.50
2023-03-26T12:19:00.133Z,15.20
2023-03-26T12:21:27.201Z,14.90
2023-03-26T12:23:56.358Z,14.50
2023-03-26T12:26:41.322Z,14.10
2023-03-26T12:29:13.185Z,13.90
2023-03-26T12:31:56.437Z,13.50
2023-03-26T12:34:34.756Z,13.30
2023-03-26T12:37:01.974Z,13.20
2023-03-26T12:40:12.009Z,13.20
2023-03-26T12:44:55.267Z,13.20
2023-03-26T12:45:40.782Z,13.20
2023-03-26T12:48:07.897Z,13.30
2023-03-26T12:51:29.417Z,13.20
2023-03-26T12:53:59.362Z,13.20
2023-03-26T12:56:39.094Z,13.20
2023-03-26T12:59:18.588Z,13.20
2023-03-26T13:01:55.842Z,13.30
2023-03-26T13:04:37.747Z,13.20
2023-03-26T13:07:25.978Z,13.00
2023-03-26T13:10:19.673Z,12.80
2023-03-26T13:13:05.180Z,12.70
2023-03-26T13:15:39.442Z,12.60
2023-03-26T13:18:31.521Z,12.50
2023-03-26T13:21:04.706Z,12.40
2023-03-26T13:23:58.546Z,12.30
2023-03-26T13:26:46.989Z,12.20
2023-03-26T13:29:34.633Z,12.30
2023-03-26T13:32:26.402Z,12.30
2023-03-26T13:35:10.737Z,12.20
2023-03-26T13:38:18.339Z,12.10
2023-03-26T13:40:58.596Z,12.00
2023-03-26T13:43:52.988Z,11.80
2023-03-26T13:46:35.916Z,11.70
2023-03-26T13:49:44.960Z,11.60
2023-03-26T13:52:26.890Z,11.60
2023-03-26T13:55:03.338Z,11.60
2023-03-26T13:57:35.370Z,11.70
2023-03-26T14:00:12.807Z,11.70
2023-03-26T14:02:40.717Z,11.70
2023-03-26T14:05:26.636Z,11.80
2023-03-26T14:08:00.596Z,11.80
2023-03-26T14:10:30.700Z,11.70
2023-03-26T14:13:09.848Z,11.70
2023-03-26T14:15:42.137Z,11.70
2023-03-26T14:18:35.102Z,11.60
2023-03-26T14:21:29.221Z,11.60
2023-03-26T14:23:55.998Z,11.60
2023-03-26T14:26:27.280Z,11.50
2023-03-26T14:29:12.953Z,11.50
2023-03-26T14:32:02.515Z,11.50
2023-03-26T14:34:41.368Z,11.50
2023-03-26T14:37:27.366Z,11.40
2023-03-26T14:40:15.051Z,11.40
2023-03-26T14:42:59.139Z,11.30
2023-03-26T14:45:47.528Z,11.30
2023-03-26T14:48:26.510Z,11.20
2023-03-26T14:51:08.012Z,11.30
2023-03-26T14:53:36.535Z,11.30
2023-03-26T14:56:24.835Z,11.40
2023-03-26T14:59:18.984Z,11.50
2023-03-26T15:02:04.316Z,11.50
2023-03-26T15:04:53.552Z,11.50
2023-03-26T15:07:23.193Z,11.40
2023-03-26T15:10:28.694Z,11.30
2023-03-26T15:13:10.476Z,11.30
2023-03-26T15:15:43.221Z,11.20
2023-03-26T15:18:37.061Z,11.10
2023-03-26T15:21:17.454Z,11.10
2023-03-26T15:24:02.627Z,11.00
2023-03-26T15:26:48.553Z,11.00
2023-03-26T15:29:30.689Z,11.10
2023-03-26T15:32:22.336Z,11.10
2023-03-26T15:35:31.975Z,11.00
2023-03-26T15:38:35.532Z,11.10
2023-03-26T15:41:17.605Z,11.00
2023-03-26T15:46:38.697Z,11.00
2023-03-26T15:49:52.216Z,11.00
2023-03-26T15:52:19.081Z,11.00
2023-03-26T15:55:04.049Z,11.00
2023-03-26T15:57:44.730Z,11.00
2023-03-26T16:00:25.248Z,10.90
2023-03-26T16:03:09.138Z,10.90
2023-03-26T16:05:40.526Z,10.90
2023-03-26T16:08:39.456Z,10.80
2023-03-26T16:11:12.516Z,10.70
2023-03-26T16:13:43.874Z,10.70
2023-03-26T16:16:16.143Z,10.60
2023-03-26T16:18:44.013Z,10.50
2023-03-26T16:21:31.132Z,10.50
2023-03-26T16:24:02.253Z,10.50
2023-03-26T16:26:52.380Z,10.50
2023-03-26T16:29:26.871Z,10.50
2023-03-26T16:31:58.329Z,10.60
2023-03-26T16:34:57.336Z,10.60
2023-03-26T16:37:36.679Z,10.70
2023-03-26T16:40:27.231Z,10.70
2023-03-26T16:43:30.344Z,10.70
2023-03-26T16:46:15.554Z,10.70
2023-03-26T16:48:58.414Z,10.70
2023-03-26T16:52:05.093Z,10.60
2023-03-26T16:54:44.095Z,10.60
2023-03-26T16:57:29.379Z,10.50
2023-03-26T17:00:07.733Z,10.40
2023-03-26T17:02:48.027Z,10.30
2023-03-26T17:05:34.291Z,10.20
2023-03-26T17:08:46.477Z,10.10
2023-03-26T17:11:24.455Z,10.00
2023-03-26T17:14:22.534Z,10.00
2023-03-26T17:17:10.924Z,10.00
2023-03-26T17:19:50.438Z,10.00
2023-03-26T17:22:37.955Z,9.90
2023-03-26T17:25:52.202Z,10.00
2023-03-26T17:28:47.400Z,9.90
2023-03-26T17:31:27.670Z,9.90
2023-03-26T17:33:54.811Z,9.90
2023-03-26T17:36:43.439Z,9.90
2023-03-26T17:39:21.586Z,9.90
2023-03-26T17:41:53.315Z,9.90
2023-03-26T17:44:37.568Z,9.90
2023-03-26T17:47:06.616Z,9.90
2023-03-26T17:49:34.107Z,10.00
2023-03-26T17:52:19.952Z,10.00
2023-03-26T17:54:51.294Z,10.00
2023-03-26T17:57:54.836Z,9.90
2023-03-26T18:00:23.567Z,9.90
2023-03-26T18:02:54.513Z,9.80
2023-03-26T18:05:21.739Z,9.70
2023-03-26T18:08:02.050Z,9.60
2023-03-26T18:10:43.763Z,9.60
2023-03-26T18:13:17.163Z,9.60
2023-03-26T18:16:16.012Z,9.60
2023-03-26T18:18:57.949Z,9.60
2023-03-26T18:21:32.734Z,9.50
2023-03-26T18:24:00.614Z,9.60
2023-03-26T18:26:36.282Z,9.60
2023-03-26T18:29:24.012Z,9.60
2023-03-26T18:31:58.365Z,9.70
2023-03-26T18:34:26.173Z,9.70
2023-03-26T18:37:11.370Z,9.80
2023-03-26T18:39:38.604Z,9.80
2023-03-26T18:42:06.556Z,9.90
2023-03-26T18:44:35.545Z,10.00
2023-03-26T18:47:09.656Z,10.00
2023-03-26T18:49:36.786Z,10.00
2023-03-26T18:52:03.814Z,10.10
2023-03-26T18:54:34.022Z,10.00
2023-03-26T18:57:15.280Z,9.90
2023-03-26T18:59:45.229Z,9.90
2023-03-26T19:02:13.675Z,9.70
2023-03-26T19:04:41.720Z,9.60
2023-03-26T19:07:15.231Z,9.50
2023-03-26T19:09:42.540Z,9.50
2023-03-26T19:12:20.130Z,9.40
2023-03-26T19:15:16.184Z,9.40
2023-03-26T19:17:46.945Z,9.30
2023-03-26T19:20:18.289Z,9.30
2023-03-26T19:22:46.343Z,9.20
2023-03-26T19:25:42.656Z,9.20
2023-03-26T19:28:25.813Z,9.30
2023-03-26T19:30:57.975Z,9.40
2023-03-26T19:33:32.501Z,9.60
2023-03-26T19:36:04.893Z,9.70
2023-03-26T19:38:38.986Z,9.70
2023-03-26T19:41:06.451Z,9.80
2023-03-26T19:43:33.295Z,9.70
2023-03-26T19:46:01.278Z,9.70
2023-03-26T19:48:46.113Z,9.60
2023-03-26T19:51:22.170Z,9.50
2023-03-26T19:53:53.121Z,9.40
2023-03-26T19:56:20.864Z,9.40
2023-03-26T19:58:48.617Z,9.40
2023-03-26T20:01:20.991Z,9.30
2023-03-26T20:03:49.362Z,9.30
2023-03-26T20:06:17.890Z,9.30
2023-03-26T20:08:44.817Z,9.20
2023-03-26T20:11:18.570Z,9.20
2023-03-26T20:13:45.417Z,9.20
2023-03-26T20:16:23.376Z,9.20
2023-03-26T20:18:53.769Z,9.20
2023-03-26T20:21:20.696Z,9.10
2023-03-26T20:23:48.005Z,9.10
2023-03-26T20:26:15.537Z,9.00
2023-03-26T20:28:48.295Z,9.00
2023-03-26T20:31:22.075Z,9.00
2023-03-26T20:33:49.977Z,9.00
2023-03-26T20:36:33.778Z,9.00
2023-03-26T20:39:06.004Z,9.00
2023-03-26T20:41:33.718Z,9.00
2023-03-26T20:44:01.059Z,8.90
2023-03-26T20:46:31.120Z,8.90
2023-03-26T20:48:58.950Z,8.80
2023-03-26T20:51:27.134Z,8.80
2023-03-26T20:53:53.969Z,8.70
2023-03-26T20:56:22.036Z,8.70
2023-03-26T20:59:09.761Z,8.70
2023-03-26T21:01:38.166Z,8.70
2023-03-26T21:04:06.238Z,8.70
2023-03-26T21:06:33.147Z,8.70
2023-03-26T21:09:00.573Z,8.70
2023-03-26T21:11:49.349Z,8.60
2023-03-26T21:14:22.497Z,8.60
2023-03-26T21:16:49.698Z,8.60
2023-03-26T21:19:20.412Z,8.60
2023-03-26T21:21:59.737Z,8.50
2023-03-26T21:24:40.943Z,8.50
2023-03-26T21:27:26.469Z,8.50
2023-03-26T21:29:55.453Z,8.50
2023-03-26T21:32:23.271Z,8.50
2023-03-26T21:34:58.453Z,8.50
2023-03-26T21:37:26.959Z,8.50
2023-03-26T21:39:54.509Z,8.50
2023-03-26T21:42:21.714Z,8.40
2023-03-26T21:44:49.597Z,8.40
2023-03-26T21:47:16.988Z,8.40
2023-03-26T21:49:44.331Z,8.30
2023-03-26T21:52:15.075Z,8.40
2023-03-26T21:54:43.096Z,8.30
2023-03-26T21:57:28.445Z,8.40
2023-03-26T22:00:18.676Z,8.40
2023-03-26T22:03:08.403Z,8.40
2023-03-26T22:05:45.348Z,8.30
2023-03-26T22:08:33.230Z,8.30
2023-03-26T22:11:00.115Z,8.30
2023-03-26T22:13:27.245Z,8.30
2023-03-26T22:15:54.238Z,8.30
2023-03-26T22:18:21.739Z,8.40
2023-03-26T22:20:49.023Z,8.40
2023-03-26T22:23:16.694Z,8.50
2023-03-26T22:25:44.033Z,8.50
2023-03-26T22:28:11.072Z,8.60
2023-03-26T22:30:38.737Z,8.60
2023-03-26T22:33:06.035Z,8.60
2023-03-26T22:35:32.845Z,8.60
2023-03-26T22:38:00.752Z,8.60
2023-03-26T22:40:28.381Z,8.60
2023-03-26T22:42:55.276Z,8.50
2023-03-26T22:45:22.913Z,8.50
2023-03-26T22:47:49.985Z,8.50
2023-03-26T22:50:16.870Z,8.40
2023-03-26T22:52:43.740Z,8.40
2023-03-26T22:55:11.592Z,8.40
2023-03-26T22:57:39.096Z,8.30
2023-03-26T23:00:16.319Z,8.30
2023-03-26T23:02:46.494Z,8.30
2023-03-26T23:05:14.002Z,8.30
2023-03-26T23:07:42.449Z,8.20
2023-03-26T23:10:09.656Z,8.20
2023-03-26T23:12:36.781Z,8.20
2023-03-26T23:15:05.274Z,8.20
2023-03-26T23:17:34.363Z,8.20
2023-03-26T23:20:02.415Z,8.10
2023-03-26T23:22:29.234Z,8.10
2023-03-26T23:24:56.119Z,8.10
2023-03-26T23:27:23.168Z,8.20
2023-03-26T23:29:50.125Z,8.10
2023-03-26T23:32:23.649Z,8.20
2023-03-26T23:34:52.143Z,8.10
2023-03-26T23:37:23.327Z,8.10
2023-03-26T23:39:50.990Z,8.10
2023-03-26T23:42:28.816Z,8.10
2023-03-26T23:44:57.249Z,8.10
2023-03-26T23:47:24.529Z,8.10
2023-03-26T23:49:51.549Z,8.10
2023-03-26T23:52:18.865Z,8.00
2023-03-26T23:54:45.795Z,8.00
2023-03-26T23:57:12.850Z,8.00
2023-03-26T23:59:41.467Z,8.00
